Wetterdaten: Freitag, 31.08.2012
Datum Zeit Temperatur Luftfeuchte Regen Wind Richtung Richtung Taupunkt Windchill Windben
31.08.2012 00:00 11,1 C 95 % 0,0 l/m 0,6 km/h (0 Bft) N 360 10,3 C 11,0 C 1,9 km/h (1 Bft)
31.08.2012 00:05 11,0 C 95 % 0,0 l/m 0,3 km/h (0 Bft) NO 45 10,2 C 11,0 C 0,0 km/h (0 Bft)
31.08.2012 00:10 11,1 C 95 % 0,0 l/m 0,3 km/h (0 Bft) N-NO 22 10,3 C 11,0 C 0,0 km/h (0 Bft)
31.08.2012 00:15 11,1 C 95 % 0,7 l/m 0,2 km/h (0 Bft) N-NO 22 10,3 C 11,0 C 0,0 km/h (0 Bft)
31.08.2012 00:20 11,1 C 95 % 0,0 l/m 0,2 km/h (0 Bft) N-NO 22 10,3 C 11,0 C 0,0 km/h (0 Bft)
31.08.2012 00:25 11,0 C 95 % 0,0 l/m 0,0 km/h (0 Bft) N-NO 22 10,2 C 11,0 C 0,0 km/h (0 Bft)
31.08.2012 00:30 11,0 C 95 % 0,0 l/m 0,0 km/h (0 Bft) N 360 10,2 C 10,9 C 0,0 km/h (0 Bft)
31.08.2012 00:35 10,9 C 96 % 0,0 l/m 0,5 km/h (0 Bft) N 360 10,3 C 10,9 C 2,7 km/h (1 Bft)
31.08.2012 00:40 10,9 C 96 % 0,7 l/m 0,6 km/h (0 Bft) N 360 10,3 C 10,8 C 1,9 km/h (1 Bft)
31.08.2012 00:45 10,8 C 96 % 0,0 l/m 0,2 km/h (0 Bft) N-NO 22 10,2 C 10,7 C 0,0 km/h (0 Bft)
31.08.2012 00:50 10,9 C 96 % 0,0 l/m 0,0 km/h (0 Bft) N-NO 22 10,3 C 10,7 C 0,0 km/h (0 Bft)
31.08.2012 00:55 10,8 C 96 % 0,0 l/m 0,3 km/h (0 Bft) NO 45 10,2 C 10,7 C 3,1 km/h (1 Bft)
31.08.2012 01:00 10,8 C 96 % 0,0 l/m 0,6 km/h (0 Bft) N-NO 22 10,2 C 10,7 C 0,0 km/h (0 Bft)
31.08.2012 01:05 10,8 C 96 % 0,7 l/m 0,3 km/h (0 Bft) NO 45 10,2 C 10,7 C 0,0 km/h (0 Bft)
31.08.2012 01:10 10,8 C 96 % 0,0 l/m 0,0 km/h (0 Bft) NO 45 10,2 C 10,6 C 0,0 km/h (0 Bft)
31.08.2012 01:15 10,8 C 96 % 0,0 l/m 0,0 km/h (0 Bft) N-NO 22 10,2 C 10,6 C 0,0 km/h (0 Bft)
31.08.2012 01:20 10,7 C 96 % 0,0 l/m 0,0 km/h (0 Bft) N 360 10,1 C 10,6 C 0,0 km/h (0 Bft)
31.08.2012 01:25 10,7 C 96 % 0,0 l/m 0,2 km/h (0 Bft) N-NO 22 10,1 C 10,6 C 0,0 km/h (0 Bft)
31.08.2012 01:30 10,6 C 96 % 0,0 l/m 0,3 km/h (0 Bft) N 360 10,0 C 10,5 C 0,0 km/h (0 Bft)
31.08.2012 01:35 10,6 C 96 % 0,0 l/m 0,3 km/h (0 Bft) N 360 10,0 C 10,5 C 0,0 km/h (0 Bft)
31.08.2012 01:40 10,6 C 96 % 0,7 l/m 0,2 km/h (0 Bft) N 360 10,0 C 10,5 C 0,0 km/h (0 Bft)
31.08.2012 01:45 10,6 C 96 % 0,0 l/m 0,3 km/h (0 Bft) N 360 10,0 C 10,5 C 1,9 km/h (1 Bft)
31.08.2012 01:50 10,6 C 96 % 0,0 l/m 0,5 km/h (0 Bft) N 360 10,0 C 10,5 C 0,0 km/h (0 Bft)
31.08.2012 01:55 10,6 C 96 % 0,0 l/m 0,2 km/h (0 Bft) N-NO 22 10,0 C 10,5 C 0,0 km/h (0 Bft)
31.08.2012 02:00 10,6 C 96 % 0,0 l/m 0,2 km/h (0 Bft) O 90 10,0 C 10,5 C 0,0 km/h (0 Bft)
31.08.2012 02:05 10,6 C 96 % 0,0 l/m 0,2 km/h (0 Bft) N-NO 22 10,0 C 10,4 C 0,0 km/h (0 Bft)
31.08.2012 02:10 10,6 C 96 % 0,0 l/m 0,0 km/h (0 Bft) N-NO 22 10,0 C 10,4 C 0,0 km/h (0 Bft)
31.08.2012 02:15 10,5 C 96 % 0,7 l/m 0,2 km/h (0 Bft) N 360 9,9 C 10,4 C 0,0 km/h (0 Bft)
31.08.2012 02:20 10,5 C 96 % 0,0 l/m 0,2 km/h (0 Bft) N-NW 337 9,9 C 10,4 C 0,0 km/h (0 Bft)
31.08.2012 02:25 10,5 C 96 % 0,0 l/m 0,0 km/h (0 Bft) S 180 9,9 C 10,3 C 0,0 km/h (0 Bft)
31.08.2012 02:30 10,5 C 96 % 0,0 l/m 0,0 km/h (0 Bft) N-NO 22 9,9 C 10,4 C 0,0 km/h (0 Bft)
31.08.2012 02:35 10,5 C 96 % 0,0 l/m 0,0 km/h (0 Bft) W-NW 292 9,9 C 10,4 C 0,0 km/h (0 Bft)
31.08.2012 02:40 10,5 C 96 % 0,0 l/m 0,0 km/h (0 Bft) W-NW 292 9,9 C 10,4 C 0,0 km/h (0 Bft)
31.08.2012 02:45 10,6 C 96 % 0,7 l/m 0,0 km/h (0 Bft) N 360 10,0 C 10,4 C 0,0 km/h (0 Bft)
31.08.2012 02:50 10,6 C 96 % 0,0 l/m 0,0 km/h (0 Bft) N-NO 22 10,0 C 10,4 C 0,0 km/h (0 Bft)
31.08.2012 02:55 10,5 C 96 % 0,0 l/m 0,0 km/h (0 Bft) SO 135 9,9 C 10,4 C 0,0 km/h (0 Bft)
31.08.2012 03:00 10,6 C 96 % 0,0 l/m 0,0 km/h (0 Bft) SO 135 10,0 C 10,4 C 0,0 km/h (0 Bft)
31.08.2012 03:05 10,5 C 96 % 0,0 l/m 0,0 km/h (0 Bft) SO 135 9,9 C 10,4 C 0,0 km/h (0 Bft)
31.08.2012 03:10 10,6 C 96 % 0,0 l/m 0,0 km/h (0 Bft) S-SO 157 10,0 C 10,5 C 0,0 km/h (0 Bft)
31.08.2012 03:15 10,6 C 96 % 0,7 l/m 0,0 km/h (0 Bft) S-SO 157 10,0 C 10,5 C 0,0 km/h (0 Bft)
31.08.2012 03:20 10,6 C 96 % 0,0 l/m 0,0 km/h (0 Bft) O-SO 112 10,0 C 10,5 C 1,8 km/h (1 Bft)
31.08.2012 03:25 10,7 C 96 % 0,0 l/m 1,0 km/h (0 Bft) O-SO 112 10,1 C 10,5 C 4,8 km/h (1 Bft)
31.08.2012 03:30 10,7 C 96 % 0,7 l/m 1,4 km/h (1 Bft) NO 45 10,1 C 10,6 C 0,0 km/h (0 Bft)
31.08.2012 03:35 10,7 C 96 % 0,0 l/m 0,6 km/h (0 Bft) NO 45 10,1 C 10,6 C 0,0 km/h (0 Bft)
31.08.2012 03:40 10,6 C 96 % 0,0 l/m 0,0 km/h (0 Bft) N 360 10,0 C 10,6 C 0,0 km/h (0 Bft)
31.08.2012 03:45 10,5 C 96 % 0,7 l/m 0,0 km/h (0 Bft) N-NO 22 9,9 C 10,5 C 0,0 km/h (0 Bft)
31.08.2012 03:50 10,5 C 96 % 0,0 l/m 0,0 km/h (0 Bft) N-NW 337 9,9 C 10,5 C 0,0 km/h (0 Bft)
31.08.2012 03:55 10,5 C 96 % 0,0 l/m 0,0 km/h (0 Bft) N-NO 22 9,9 C 10,4 C 0,0 km/h (0 Bft)
31.08.2012 04:00 10,5 C 96 % 0,0 l/m 0,0 km/h (0 Bft) NO 45 9,9 C 10,3 C 0,0 km/h (0 Bft)
31.08.2012 04:05 10,4 C 96 % 0,7 l/m 0,0 km/h (0 Bft) N-NO 22 9,8 C 10,3 C 0,0 km/h (0 Bft)
31.08.2012 04:10 10,3 C 96 % 0,0 l/m 0,0 km/h (0 Bft) N-NW 337 9,7 C 10,3 C 0,0 km/h (0 Bft)
31.08.2012 04:15 10,3 C 96 % 0,0 l/m 0,0 km/h (0 Bft) N-NO 22 9,7 C 10,3 C 1,8 km/h (1 Bft)
31.08.2012 04:20 10,3 C 96 % 0,7 l/m 0,0 km/h (0 Bft) NO 45 9,7 C 10,3 C 0,0 km/h (0 Bft)
31.08.2012 04:25 10,3 C 96 % 0,0 l/m 0,0 km/h (0 Bft) O-SO 112 9,7 C 10,2 C 0,0 km/h (0 Bft)
31.08.2012 04:30 10,4 C 96 % 0,0 l/m 0,2 km/h (0 Bft) S 180 9,8 C 10,3 C 2,3 km/h (1 Bft)
31.08.2012 04:35 10,4 C 96 % 0,7 l/m 0,2 km/h (0 Bft) N-NO 22 9,8 C 10,3 C 0,0 km/h (0 Bft)
31.08.2012 04:40 10,4 C 96 % 0,0 l/m 0,2 km/h (0 Bft) O-SO 112 9,8 C 10,3 C 4,0 km/h (1 Bft)
31.08.2012 04:45 10,4 C 96 % 0,0 l/m 0,8 km/h (0 Bft) N 360 9,8 C 10,3 C 0,0 km/h (0 Bft)
31.08.2012 04:50 10,4 C 96 % 0,0 l/m 1,3 km/h (1 Bft) SO 135 9,8 C 10,3 C 3,7 km/h (1 Bft)
31.08.2012 04:55 10,4 C 96 % 0,7 l/m 0,8 km/h (0 Bft) N-NW 337 9,8 C 10,3 C 0,0 km/h (0 Bft)
31.08.2012 05:00 10,4 C 96 % 0,0 l/m 0,6 km/h (0 Bft) N-NO 22 9,8 C 10,3 C 0,0 km/h (0 Bft)
31.08.2012 05:05 10,4 C 96 % 0,0 l/m 0,5 km/h (0 Bft) O 90 9,8 C 10,3 C 0,0 km/h (0 Bft)
31.08.2012 05:10 10,3 C 96 % 0,0 l/m 1,0 km/h (0 Bft) O 90 9,7 C 10,2 C 0,0 km/h (0 Bft)
31.08.2012 05:15 10,1 C 96 % 0,0 l/m 0,8 km/h (0 Bft) O-NO 67 9,5 C 10,1 C 0,0 km/h (0 Bft)
31.08.2012 05:20 10,1 C 96 % 0,0 l/m 0,5 km/h (0 Bft) N-NO 22 9,5 C 10,0 C 3,1 km/h (1 Bft)
31.08.2012 05:25 10,0 C 96 % 0,0 l/m 1,3 km/h (1 Bft) O-SO 112 9,4 C 10,0 C 7,6 km/h (2 Bft)
31.08.2012 05:30 10,1 C 96 % 0,0 l/m 2,4 km/h (1 Bft) O 90 9,5 C 9,9 C 4,2 km/h (1 Bft)
31.08.2012 05:35 10,0 C 96 % 0,0 l/m 2,7 km/h (1 Bft) O-SO 112 9,4 C 9,9 C 3,7 km/h (1 Bft)
31.08.2012 05:40 9,9 C 96 % 0,0 l/m 1,8 km/h (1 Bft) N 360 9,3 C 9,8 C 0,0 km/h (0 Bft)
31.08.2012 05:45 9,8 C 96 % 0,7 l/m 0,6 km/h (0 Bft) W-SW 247 9,2 C 9,7 C 0,0 km/h (0 Bft)
31.08.2012 05:50 9,8 C 96 % 0,0 l/m 0,2 km/h (0 Bft) S 180 9,2 C 9,7 C 0,0 km/h (0 Bft)
31.08.2012 05:55 9,6 C 96 % 0,0 l/m 0,3 km/h (0 Bft) S-SO 157 9,0 C 9,5 C 0,0 km/h (0 Bft)
31.08.2012 06:00 9,5 C 96 % 0,0 l/m 0,2 km/h (0 Bft) NO 45 8,9 C 9,5 C 0,0 km/h (0 Bft)
31.08.2012 06:05 9,4 C 96 % 0,0 l/m 0,3 km/h (0 Bft) N 360 8,8 C 9,2 C 0,0 km/h (0 Bft)
31.08.2012 06:10 9,4 C 96 % 0,0 l/m 0,3 km/h (0 Bft) N-NO 22 8,8 C 9,2 C 0,0 km/h (0 Bft)
31.08.2012 06:15 9,4 C 96 % 0,0 l/m 0,3 km/h (0 Bft) SO 135 8,8 C 9,2 C 2,7 km/h (1 Bft)
31.08.2012 06:20 9,4 C 96 % 0,0 l/m 0,3 km/h (0 Bft) N 360 8,8 C 9,2 C 0,0 km/h (0 Bft)
31.08.2012 06:25 9,4 C 96 % 0,0 l/m 0,3 km/h (0 Bft) N-NO 22 8,8 C 9,2 C 0,0 km/h (0 Bft)
31.08.2012 06:30 9,4 C 96 % 0,0 l/m 0,0 km/h (0 Bft) N-NO 22 8,8 C 9,2 C 0,0 km/h (0 Bft)
31.08.2012 06:35 9,4 C 96 % 0,0 l/m 0,3 km/h (0 Bft) S 180 8,8 C 9,2 C 4,8 km/h (1 Bft)
31.08.2012 06:40 9,4 C 96 % 0,0 l/m 0,6 km/h (0 Bft) W-NW 292 8,8 C 9,2 C 1,8 km/h (1 Bft)
31.08.2012 06:45 9,4 C 96 % 0,7 l/m 0,6 km/h (0 Bft) S-SO 157 8,8 C 9,2 C 1,8 km/h (1 Bft)
31.08.2012 06:50 9,4 C 96 % 0,0 l/m 0,5 km/h (0 Bft) O-NO 67 8,8 C 9,2 C 0,0 km/h (0 Bft)
31.08.2012 06:55 9,5 C 96 % 0,0 l/m 0,5 km/h (0 Bft) W 270 8,9 C 9,3 C 0,0 km/h (0 Bft)
31.08.2012 07:00 9,5 C 96 % 0,0 l/m 0,2 km/h (0 Bft) N 360 8,9 C 9,3 C 0,0 km/h (0 Bft)
31.08.2012 07:05 9,5 C 96 % 0,7 l/m 0,2 km/h (0 Bft) W-NW 292 8,9 C 9,4 C 1,6 km/h (1 Bft)
31.08.2012 07:10 9,5 C 96 % 0,0 l/m 0,5 km/h (0 Bft) S-SW 202 8,9 C 9,4 C 2,4 km/h (1 Bft)
31.08.2012 07:15 9,5 C 96 % 0,0 l/m 1,0 km/h (0 Bft) S 180 8,9 C 9,3 C 2,6 km/h (1 Bft)
31.08.2012 07:20 9,5 C 96 % 0,0 l/m 1,3 km/h (1 Bft) NO 45 8,9 C 9,3 C 1,8 km/h (1 Bft)
31.08.2012 07:25 9,5 C 96 % 0,0 l/m 1,4 km/h (1 Bft) S-SW 202 8,9 C 9,3 C 4,2 km/h (1 Bft)
31.08.2012 07:30 9,5 C 96 % 0,0 l/m 1,9 km/h (1 Bft) SO 135 8,9 C 9,3 C 0,0 km/h (0 Bft)
31.08.2012 07:35 9,5 C 96 % 0,0 l/m 1,9 km/h (1 Bft) NO 45 8,9 C 9,3 C 4,2 km/h (1 Bft)
31.08.2012 07:40 9,4 C 96 % 0,0 l/m 2,3 km/h (1 Bft) SO 135 8,8 C 9,3 C 5,6 km/h (1 Bft)
31.08.2012 07:45 9,4 C 96 % 0,0 l/m 3,1 km/h (1 Bft) SO 135 8,8 C 9,2 C 4,7 km/h (1 Bft)
31.08.2012 07:50 9,4 C 96 % 0,7 l/m 2,9 km/h (1 Bft) S-SO 157 8,8 C 9,2 C 2,9 km/h (1 Bft)
31.08.2012 07:55 9,4 C 96 % 0,0 l/m 3,1 km/h (1 Bft) O-SO 112 8,8 C 9,2 C 3,9 km/h (1 Bft)
31.08.2012 08:00 9,4 C 96 % 0,0 l/m 2,6 km/h (1 Bft) S 180 8,8 C 9,2 C 0,0 km/h (0 Bft)
31.08.2012 08:06 9,4 C 96 % 0,0 l/m 1,0 km/h (0 Bft) N-NO 22 8,8 C 9,2 C 0,0 km/h (0 Bft)
31.08.2012 08:10 9,5 C 96 % 0,0 l/m 0,0 km/h (0 Bft) N-NW 337 8,9 C 9,3 C 0,0 km/h (0 Bft)
31.08.2012 08:15 9,5 C 96 % 0,0 l/m 0,0 km/h (0 Bft) O 90 8,9 C 9,3 C 0,0 km/h (0 Bft)
31.08.2012 08:20 9,4 C 96 % 0,0 l/m 0,3 km/h (0 Bft) W-SW 247 8,8 C 9,3 C 2,3 km/h (1 Bft)
31.08.2012 08:25 9,5 C 96 % 0,7 l/m 0,3 km/h (0 Bft) NO 45 8,9 C 9,3 C 0,0 km/h (0 Bft)
31.08.2012 08:30 9,6 C 96 % 0,0 l/m 0,2 km/h (0 Bft) O 90 9,0 C 9,4 C 0,0 km/h (0 Bft)
31.08.2012 08:35 9,5 C 96 % 0,0 l/m 0,0 km/h (0 Bft) O 90 8,9 C 9,4 C 0,0 km/h (0 Bft)
31.08.2012 08:40 9,5 C 96 % 0,0 l/m 0,2 km/h (0 Bft) N-NW 337 8,9 C 9,4 C 2,4 km/h (1 Bft)
31.08.2012 08:45 9,6 C 96 % 0,0 l/m 0,2 km/h (0 Bft) N-NW 337 9,0 C 9,5 C 0,0 km/h (0 Bft)
31.08.2012 08:50 9,6 C 96 % 0,0 l/m 0,3 km/h (0 Bft) SO 135 9,0 C 9,5 C 0,0 km/h (0 Bft)
31.08.2012 08:55 9,7 C 96 % 0,0 l/m 0,0 km/h (0 Bft) SO 135 9,1 C 9,6 C 0,0 km/h (0 Bft)
31.08.2012 09:00 9,7 C 96 % 0,0 l/m 0,0 km/h (0 Bft) N-NO 22 9,1 C 9,7 C 0,0 km/h (0 Bft)
31.08.2012 09:05 9,7 C 96 % 0,0 l/m 0,2 km/h (0 Bft) O-NO 67 9,1 C 9,7 C 0,0 km/h (0 Bft)
31.08.2012 09:10 9,7 C 96 % 0,0 l/m 0,2 km/h (0 Bft) N 360 9,1 C 9,7 C 0,0 km/h (0 Bft)
31.08.2012 09:15 9,8 C 96 % 0,0 l/m 0,3 km/h (0 Bft) O-SO 112 9,2 C 9,7 C 3,1 km/h (1 Bft)
31.08.2012 09:20 9,7 C 96 % 0,7 l/m 0,6 km/h (0 Bft) S-SW 202 9,1 C 9,6 C 0,0 km/h (0 Bft)
31.08.2012 09:25 9,7 C 96 % 0,0 l/m 1,0 km/h (0 Bft) S 180 9,1 C 9,6 C 2,9 km/h (1 Bft)
31.08.2012 09:30 9,7 C 96 % 0,0 l/m 0,8 km/h (0 Bft) S 180 9,1 C 9,5 C 0,0 km/h (0 Bft)
31.08.2012 09:35 9,7 C 96 % 0,0 l/m 1,9 km/h (1 Bft) S 180 9,1 C 9,5 C 3,5 km/h (1 Bft)
31.08.2012 09:40 9,6 C 96 % 0,0 l/m 2,3 km/h (1 Bft) O-NO 67 9,0 C 9,4 C 1,9 km/h (1 Bft)
31.08.2012 09:45 9,7 C 96 % 0,0 l/m 2,3 km/h (1 Bft) O-SO 112 9,1 C 9,4 C 2,3 km/h (1 Bft)
31.08.2012 09:50 9,8 C 96 % 0,0 l/m 1,6 km/h (1 Bft) W-SW 247 9,2 C 9,4 C 2,6 km/h (1 Bft)
31.08.2012 09:55 9,8 C 96 % 0,0 l/m 0,8 km/h (0 Bft) O-SO 112 9,2 C 9,5 C 2,1 km/h (1 Bft)
31.08.2012 10:00 9,8 C 96 % 0,0 l/m 0,5 km/h (0 Bft) NW 315 9,2 C 9,6 C 1,6 km/h (1 Bft)
31.08.2012 10:05 9,9 C 96 % 0,0 l/m 0,5 km/h (0 Bft) SO 135 9,3 C 9,7 C 2,1 km/h (1 Bft)
31.08.2012 10:10 9,9 C 96 % 0,0 l/m 0,5 km/h (0 Bft) S-SO 157 9,3 C 9,7 C 0,0 km/h (0 Bft)
31.08.2012 10:15 9,9 C 96 % 0,0 l/m 1,0 km/h (0 Bft) SO 135 9,3 C 9,7 C 4,2 km/h (1 Bft)
31.08.2012 10:20 9,9 C 96 % 0,7 l/m 1,8 km/h (1 Bft) SO 135 9,3 C 9,7 C 6,0 km/h (2 Bft)
31.08.2012 10:25 9,8 C 96 % 0,0 l/m 1,9 km/h (1 Bft) NO 45 9,2 C 9,6 C 2,9 km/h (1 Bft)
31.08.2012 10:30 9,8 C 96 % 0,0 l/m 1,0 km/h (0 Bft) N-NO 22 9,2 C 9,6 C 0,0 km/h (0 Bft)
31.08.2012 10:35 10,0 C 96 % 0,0 l/m 0,6 km/h (0 Bft) SO 135 9,4 C 9,7 C 0,0 km/h (0 Bft)
31.08.2012 10:40 9,8 C 96 % 0,0 l/m 0,5 km/h (0 Bft) SO 135 9,2 C 9,7 C 0,0 km/h (0 Bft)
31.08.2012 10:45 9,9 C 96 % 0,0 l/m 0,0 km/h (0 Bft) N-NO 22 9,3 C 9,8 C 0,0 km/h (0 Bft)
31.08.2012 10:50 9,9 C 96 % 0,0 l/m 0,0 km/h (0 Bft) N-NO 22 9,3 C 9,9 C 0,0 km/h (0 Bft)
31.08.2012 10:55 9,9 C 96 % 0,0 l/m 0,0 km/h (0 Bft) N-NW 337 9,3 C 9,9 C 0,0 km/h (0 Bft)
31.08.2012 11:00 9,9 C 96 % 0,0 l/m 0,0 km/h (0 Bft) S 180 9,3 C 9,9 C 0,0 km/h (0 Bft)
31.08.2012 11:05 9,9 C 96 % 0,0 l/m 0,0 km/h (0 Bft) N-NO 22 9,3 C 9,9 C 0,0 km/h (0 Bft)
31.08.2012 11:10 9,9 C 96 % 0,7 l/m 0,0 km/h (0 Bft) NO 45 9,3 C 9,9 C 0,0 km/h (0 Bft)
31.08.2012 11:15 9,9 C 96 % 0,0 l/m 0,2 km/h (0 Bft) W 270 9,3 C 10,0 C 1,6 km/h (1 Bft)
31.08.2012 11:20 10,0 C 96 % 0,0 l/m 0,5 km/h (0 Bft) W-NW 292 9,4 C 9,9 C 1,9 km/h (1 Bft)
31.08.2012 11:25 10,0 C 96 % 0,0 l/m 0,8 km/h (0 Bft) W 270 9,4 C 9,8 C 0,0 km/h (0 Bft)
31.08.2012 11:30 10,0 C 96 % 0,0 l/m 0,6 km/h (0 Bft) O-SO 112 9,4 C 9,9 C 0,0 km/h (0 Bft)
31.08.2012 11:35 10,1 C 96 % 0,7 l/m 0,6 km/h (0 Bft) O-SO 112 9,5 C 9,8 C 1,6 km/h (1 Bft)
31.08.2012 11:40 10,2 C 96 % 0,0 l/m 1,0 km/h (0 Bft) O-SO 112 9,6 C 9,9 C 2,7 km/h (1 Bft)
31.08.2012 11:45 10,2 C 96 % 0,0 l/m 0,6 km/h (0 Bft) O-SO 112 9,6 C 10,0 C 0,0 km/h (0 Bft)
31.08.2012 11:50 10,2 C 96 % 0,0 l/m 0,8 km/h (0 Bft) W-SW 247 9,6 C 10,0 C 2,4 km/h (1 Bft)
31.08.2012 11:55 10,2 C 96 % 0,7 l/m 0,8 km/h (0 Bft) S 180 9,6 C 10,0 C 0,0 km/h (0 Bft)
31.08.2012 12:00 10,5 C 96 % 0,0 l/m 0,5 km/h (0 Bft) S 180 9,9 C 10,3 C 0,0 km/h (0 Bft)
31.08.2012 12:05 10,4 C 96 % 0,0 l/m 0,2 km/h (0 Bft) W-SW 247 9,8 C 10,4 C 0,0 km/h (0 Bft)
31.08.2012 12:10 10,6 C 96 % 0,0 l/m 0,3 km/h (0 Bft) NO 45 10,0 C 10,4 C 0,0 km/h (0 Bft)
31.08.2012 12:15 10,9 C 96 % 0,0 l/m 0,6 km/h (0 Bft) O 90 10,3 C 10,7 C 3,2 km/h (1 Bft)
31.08.2012 12:20 10,8 C 96 % 0,0 l/m 1,4 km/h (1 Bft) O-SO 112 10,2 C 10,7 C 2,9 km/h (1 Bft)
31.08.2012 12:25 10,8 C 96 % 0,7 l/m 1,3 km/h (1 Bft) SO 135 10,2 C 10,8 C 2,1 km/h (1 Bft)
31.08.2012 12:30 10,6 C 96 % 0,0 l/m 0,8 km/h (0 Bft) N 360 10,0 C 10,7 C 0,0 km/h (0 Bft)
31.08.2012 12:35 10,2 C 96 % 0,0 l/m 0,5 km/h (0 Bft) W-NW 292 9,6 C 10,6 C 0,0 km/h (0 Bft)
31.08.2012 12:40 10,4 C 96 % 0,0 l/m 0,3 km/h (0 Bft) W-SW 247 9,8 C 10,6 C 1,9 km/h (1 Bft)
31.08.2012 12:45 10,4 C 96 % 0,0 l/m 0,8 km/h (0 Bft) W-NW 292 9,8 C 10,4 C 2,1 km/h (1 Bft)
31.08.2012 12:50 10,6 C 96 % 0,0 l/m 0,8 km/h (0 Bft) NW 315 10,0 C 10,4 C 0,0 km/h (0 Bft)
31.08.2012 12:55 10,7 C 96 % 0,0 l/m 0,2 km/h (0 Bft) S-SO 157 10,1 C 10,5 C 1,9 km/h (1 Bft)
31.08.2012 13:00 10,6 C 96 % 0,0 l/m 0,2 km/h (0 Bft) SO 135 10,0 C 10,4 C 0,0 km/h (0 Bft)
31.08.2012 13:05 10,6 C 96 % 0,0 l/m 0,2 km/h (0 Bft) SO 135 10,0 C 10,4 C 0,0 km/h (0 Bft)
31.08.2012 13:10 10,5 C 96 % 0,7 l/m 0,0 km/h (0 Bft) NO 45 9,9 C 10,4 C 0,0 km/h (0 Bft)
31.08.2012 13:15 10,5 C 96 % 0,0 l/m 0,3 km/h (0 Bft) O 90 9,9 C 10,6 C 0,0 km/h (0 Bft)
31.08.2012 13:20 10,4 C 96 % 0,0 l/m 0,3 km/h (0 Bft) O 90 9,8 C 10,5 C 0,0 km/h (0 Bft)
31.08.2012 13:25 10,5 C 96 % 0,0 l/m 0,2 km/h (0 Bft) SO 135 9,9 C 10,7 C 0,0 km/h (0 Bft)
31.08.2012 13:30 10,5 C 96 % 0,0 l/m 0,5 km/h (0 Bft) SO 135 9,9 C 10,6 C 3,1 km/h (1 Bft)
31.08.2012 13:35 10,4 C 96 % 0,0 l/m 2,4 km/h (1 Bft) O-SO 112 9,8 C 10,2 C 4,5 km/h (1 Bft)
31.08.2012 13:40 10,3 C 96 % 0,0 l/m 2,9 km/h (1 Bft) NO 45 9,7 C 10,1 C 2,1 km/h (1 Bft)
31.08.2012 13:45 10,5 C 96 % 0,0 l/m 1,4 km/h (1 Bft) O-SO 112 9,9 C 10,2 C 3,1 km/h (1 Bft)
31.08.2012 13:50 10,3 C 96 % 0,7 l/m 0,5 km/h (0 Bft) S 180 9,7 C 10,3 C 0,0 km/h (0 Bft)
31.08.2012 13:55 10,1 C 96 % 0,0 l/m 0,3 km/h (0 Bft) N-NO 22 9,5 C 10,3 C 0,0 km/h (0 Bft)
31.08.2012 14:00 10,0 C 96 % 0,0 l/m 0,2 km/h (0 Bft) O 90 9,4 C 10,2 C 1,6 km/h (1 Bft)
31.08.2012 14:05 10,1 C 96 % 0,0 l/m 0,5 km/h (0 Bft) O 90 9,5 C 10,0 C 0,0 km/h (0 Bft)
31.08.2012 14:10 10,1 C 96 % 0,0 l/m 0,5 km/h (0 Bft) N-NO 22 9,5 C 10,0 C 0,0 km/h (0 Bft)
31.08.2012 14:15 10,1 C 96 % 0,0 l/m 0,0 km/h (0 Bft) O 90 9,5 C 10,1 C 0,0 km/h (0 Bft)
31.08.2012 14:20 10,2 C 96 % 0,7 l/m 0,2 km/h (0 Bft) O-SO 112 9,6 C 10,2 C 0,0 km/h (0 Bft)
31.08.2012 14:25 10,4 C 96 % 0,0 l/m 0,6 km/h (0 Bft) S 180 9,8 C 10,3 C 2,1 km/h (1 Bft)
31.08.2012 14:30 10,5 C 96 % 0,0 l/m 1,1 km/h (1 Bft) S 180 9,9 C 10,3 C 0,0 km/h (0 Bft)
31.08.2012 14:35 10,4 C 96 % 0,0 l/m 1,6 km/h (1 Bft) SO 135 9,8 C 10,3 C 1,9 km/h (1 Bft)
31.08.2012 14:40 10,5 C 96 % 0,0 l/m 1,1 km/h (1 Bft) O-NO 67 9,9 C 10,3 C 0,0 km/h (0 Bft)
31.08.2012 14:45 10,2 C 96 % 0,0 l/m 0,6 km/h (0 Bft) SO 135 9,6 C 10,4 C 1,8 km/h (1 Bft)
31.08.2012 14:50 10,2 C 96 % 0,0 l/m 0,5 km/h (0 Bft) NO 45 9,6 C 10,3 C 2,3 km/h (1 Bft)
31.08.2012 14:55 10,0 C 96 % 0,0 l/m 1,1 km/h (1 Bft) O 90 9,4 C 10,1 C 0,0 km/h (0 Bft)
31.08.2012 15:00 10,0 C 96 % 0,7 l/m 0,8 km/h (0 Bft) O-SO 112 9,4 C 10,1 C 0,0 km/h (0 Bft)
31.08.2012 15:05 9,9 C 96 % 0,0 l/m 0,6 km/h (0 Bft) SO 135 9,3 C 10,0 C 0,0 km/h (0 Bft)
31.08.2012 15:10 9,8 C 96 % 0,0 l/m 0,6 km/h (0 Bft) N-NO 22 9,2 C 10,0 C 0,0 km/h (0 Bft)
31.08.2012 15:15 9,9 C 96 % 0,0 l/m 0,8 km/h (0 Bft) O-SO 112 9,3 C 10,0 C 3,1 km/h (1 Bft)
31.08.2012 15:20 9,8 C 96 % 0,0 l/m 1,3 km/h (1 Bft) N-NO 22 9,2 C 9,8 C 0,0 km/h (0 Bft)
31.08.2012 15:25 9,8 C 96 % 0,0 l/m 1,9 km/h (1 Bft) NO 45 9,2 C 9,8 C 1,8 km/h (1 Bft)
31.08.2012 15:30 9,9 C 96 % 0,0 l/m 1,0 km/h (0 Bft) O 90 9,3 C 9,8 C 1,6 km/h (1 Bft)
31.08.2012 15:35 9,8 C 96 % 0,7 l/m 0,8 km/h (0 Bft) O-NO 67 9,2 C 9,8 C 2,4 km/h (1 Bft)
31.08.2012 15:40 9,9 C 96 % 0,0 l/m 0,8 km/h (0 Bft) N-NW 337 9,3 C 9,9 C 0,0 km/h (0 Bft)
31.08.2012 15:45 10,0 C 95 % 0,0 l/m 0,3 km/h (0 Bft) SO 135 9,2 C 10,0 C 0,0 km/h (0 Bft)
31.08.2012 15:50 10,0 C 95 % 0,0 l/m 0,0 km/h (0 Bft) SO 135 9,2 C 10,0 C 0,0 km/h (0 Bft)
31.08.2012 15:55 10,0 C 95 % 0,0 l/m 0,0 km/h (0 Bft) N-NO 22 9,2 C 10,1 C 0,0 km/h (0 Bft)
31.08.2012 16:00 10,1 C 96 % 0,0 l/m 0,0 km/h (0 Bft) S 180 9,5 C 10,2 C 0,0 km/h (0 Bft)
31.08.2012 16:05 9,9 C 96 % 0,0 l/m 0,5 km/h (0 Bft) O-SO 112 9,3 C 10,1 C 4,3 km/h (1 Bft)
31.08.2012 16:10 9,9 C 96 % 0,0 l/m 0,8 km/h (0 Bft) O-SO 112 9,3 C 10,0 C 0,0 km/h (0 Bft)
31.08.2012 16:15 10,0 C 96 % 0,0 l/m 1,0 km/h (0 Bft) O-SO 112 9,4 C 10,0 C 0,0 km/h (0 Bft)
31.08.2012 16:20 10,0 C 96 % 0,7 l/m 0,6 km/h (0 Bft) SO 135 9,4 C 9,9 C 0,0 km/h (0 Bft)
31.08.2012 16:25 9,9 C 96 % 0,0 l/m 1,6 km/h (1 Bft) S-SO 157 9,3 C 9,8 C 3,7 km/h (1 Bft)
31.08.2012 16:30 9,9 C 96 % 0,0 l/m 1,9 km/h (1 Bft) O 90 9,3 C 9,7 C 0,0 km/h (0 Bft)
31.08.2012 16:35 9,7 C 96 % 0,0 l/m 1,8 km/h (1 Bft) NO 45 9,1 C 9,7 C 0,0 km/h (0 Bft)
31.08.2012 16:40 9,7 C 96 % 0,0 l/m 1,1 km/h (1 Bft) O-NO 67 9,1 C 9,7 C 2,1 km/h (1 Bft)
31.08.2012 16:45 9,7 C 96 % 0,0 l/m 1,0 km/h (0 Bft) SW 225 9,1 C 9,6 C 2,4 km/h (1 Bft)
31.08.2012 16:50 9,7 C 96 % 0,7 l/m 1,8 km/h (1 Bft) SO 135 9,1 C 9,6 C 2,9 km/h (1 Bft)
31.08.2012 16:55 9,7 C 96 % 0,0 l/m 2,1 km/h (1 Bft) N-NO 22 9,1 C 9,5 C 0,0 km/h (0 Bft)
31.08.2012 17:00 9,7 C 96 % 0,0 l/m 1,4 km/h (1 Bft) O-SO 112 9,1 C 9,6 C 0,0 km/h (0 Bft)
31.08.2012 17:05 9,5 C 96 % 0,0 l/m 1,1 km/h (1 Bft) SO 135 8,9 C 9,6 C 1,6 km/h (1 Bft)
31.08.2012 17:10 9,4 C 96 % 0,0 l/m 2,3 km/h (1 Bft) S 180 8,8 C 9,4 C 12,2 km/h (2 Bft)
31.08.2012 17:15 9,5 C 96 % 0,7 l/m 4,2 km/h (1 Bft) NO 45 8,9 C 9,2 C 6,4 km/h (2 Bft)
31.08.2012 17:20 9,5 C 96 % 0,0 l/m 3,5 km/h (1 Bft) O-SO 112 8,9 C 9,2 C 3,2 km/h (1 Bft)
31.08.2012 17:25 9,4 C 96 % 0,0 l/m 3,1 km/h (1 Bft) O-SO 112 8,8 C 9,2 C 5,3 km/h (1 Bft)
31.08.2012 17:30 9,3 C 96 % 0,0 l/m 3,1 km/h (1 Bft) O 90 8,7 C 9,1 C 1,9 km/h (1 Bft)
31.08.2012 17:35 9,2 C 95 % 0,0 l/m 2,6 km/h (1 Bft) O-SO 112 8,4 C 9,1 C 4,5 km/h (1 Bft)
31.08.2012 17:40 9,1 C 96 % 0,0 l/m 1,6 km/h (1 Bft) N-NO 22 8,5 C 9,0 C 0,0 km/h (0 Bft)
31.08.2012 17:45 9,1 C 96 % 0,0 l/m 0,8 km/h (0 Bft) SO 135 8,5 C 9,0 C 0,0 km/h (0 Bft)
31.08.2012 17:50 9,0 C 95 % 0,7 l/m 0,6 km/h (0 Bft) O 90 8,2 C 8,9 C 3,1 km/h (1 Bft)
31.08.2012 17:55 9,0 C 95 % 0,0 l/m 0,8 km/h (0 Bft) O 90 8,2 C 8,9 C 1,8 km/h (1 Bft)
31.08.2012 17:58 9,1 C 96 % 0,0 l/m 0,3 km/h (0 Bft) NO 45 8,5 C 8,9 C 0,0 km/h (0 Bft)
31.08.2012 18:03 9,1 C 96 % 0,0 l/m 0,3 km/h (0 Bft) SO 135 8,5 C 9,0 C 0,0 km/h (0 Bft)
31.08.2012 18:08 9,1 C 96 % 0,0 l/m 0,8 km/h (0 Bft) NO 45 8,5 C 9,0 C 2,1 km/h (1 Bft)
31.08.2012 18:13 9,1 C 96 % 0,0 l/m 0,8 km/h (0 Bft) NO 45 8,5 C 8,9 C 0,0 km/h (0 Bft)
31.08.2012 18:25 9,1 C 96 % 0,0 l/m 0,3 km/h (0 Bft) O-SO 112 8,5 C 8,9 C 0,0 km/h (0 Bft)
31.08.2012 18:30 9,2 C 96 % 0,7 l/m 0,0 km/h (0 Bft) O 90 8,6 C 9,0 C 0,0 km/h (0 Bft)
31.08.2012 18:36 9,2 C 96 % 0,0 l/m 0,0 km/h (0 Bft) NO 45 8,6 C 9,1 C 0,0 km/h (0 Bft)
31.08.2012 18:40 9,2 C 96 % 0,0 l/m 0,0 km/h (0 Bft) NO 45 8,6 C 9,1 C 0,0 km/h (0 Bft)
31.08.2012 18:45 9,2 C 96 % 0,0 l/m 0,0 km/h (0 Bft) N-NO 22 8,6 C 9,1 C 0,0 km/h (0 Bft)
31.08.2012 18:50 9,1 C 96 % 0,0 l/m 0,6 km/h (0 Bft) S 180 8,5 C 9,1 C 2,6 km/h (1 Bft)
31.08.2012 18:55 9,1 C 96 % 0,0 l/m 0,8 km/h (0 Bft) NO 45 8,5 C 9,0 C 0,0 km/h (0 Bft)
31.08.2012 19:00 9,1 C 96 % 0,0 l/m 0,3 km/h (0 Bft) O 90 8,5 C 9,0 C 0,0 km/h (0 Bft)
31.08.2012 19:05 9,0 C 96 % 0,0 l/m 0,0 km/h (0 Bft) N-NO 22 8,4 C 9,0 C 0,0 km/h (0 Bft)
31.08.2012 19:10 9,0 C 96 % 0,0 l/m 0,0 km/h (0 Bft) O-SO 112 8,4 C 8,9 C 0,0 km/h (0 Bft)
31.08.2012 19:15 8,9 C 96 % 0,0 l/m 0,0 km/h (0 Bft) N 360 8,3 C 8,9 C 0,0 km/h (0 Bft)
31.08.2012 19:20 8,9 C 96 % 0,0 l/m 0,0 km/h (0 Bft) N 360 8,3 C 8,8 C 0,0 km/h (0 Bft)
31.08.2012 19:25 8,8 C 96 % 0,0 l/m 0,0 km/h (0 Bft) N 360 8,2 C 8,8 C 0,0 km/h (0 Bft)
31.08.2012 19:30 8,8 C 96 % 0,7 l/m 0,0 km/h (0 Bft) N-NO 22 8,2 C 8,7 C 0,0 km/h (0 Bft)
31.08.2012 19:35 8,8 C 96 % 0,0 l/m 0,0 km/h (0 Bft) SO 135 8,2 C 8,7 C 0,0 km/h (0 Bft)
31.08.2012 19:40 8,7 C 96 % 0,0 l/m 0,0 km/h (0 Bft) NO 45 8,1 C 8,6 C 0,0 km/h (0 Bft)
31.08.2012 19:45 8,6 C 96 % 0,0 l/m 0,0 km/h (0 Bft) N 360 8,0 C 8,5 C 1,6 km/h (1 Bft)
31.08.2012 19:50 8,7 C 96 % 0,0 l/m 0,0 km/h (0 Bft) O-SO 112 8,1 C 8,5 C 0,0 km/h (0 Bft)
31.08.2012 19:55 8,7 C 96 % 0,0 l/m 0,0 km/h (0 Bft) SO 135 8,1 C 8,5 C 0,0 km/h (0 Bft)
31.08.2012 20:00 8,8 C 96 % 0,0 l/m 0,2 km/h (0 Bft) NO 45 8,2 C 8,5 C 0,0 km/h (0 Bft)
31.08.2012 20:05 8,7 C 96 % 0,0 l/m 0,3 km/h (0 Bft) N-NO 22 8,1 C 8,5 C 0,0 km/h (0 Bft)
31.08.2012 20:10 8,7 C 96 % 0,0 l/m 0,3 km/h (0 Bft) O-SO 112 8,1 C 8,5 C 2,4 km/h (1 Bft)
31.08.2012 20:15 8,8 C 96 % 0,0 l/m 0,6 km/h (0 Bft) O-SO 112 8,2 C 8,5 C 0,0 km/h (0 Bft)
31.08.2012 20:20 8,6 C 96 % 0,0 l/m 0,5 km/h (0 Bft) NO 45 8,0 C 8,5 C 0,0 km/h (0 Bft)
31.08.2012 20:25 8,6 C 96 % 0,0 l/m 0,0 km/h (0 Bft) W-SW 247 8,0 C 8,5 C 0,0 km/h (0 Bft)
31.08.2012 20:30 8,6 C 96 % 0,0 l/m 0,3 km/h (0 Bft) N 360 8,0 C 8,5 C 0,0 km/h (0 Bft)
31.08.2012 20:35 8,6 C 96 % 0,0 l/m 0,3 km/h (0 Bft) W-NW 292 8,0 C 8,4 C 0,0 km/h (0 Bft)
31.08.2012 20:40 8,5 C 96 % 0,0 l/m 0,0 km/h (0 Bft) N-NO 22 7,9 C 8,4 C 0,0 km/h (0 Bft)
31.08.2012 20:45 8,5 C 96 % 0,0 l/m 0,0 km/h (0 Bft) N-NO 22 7,9 C 8,3 C 0,0 km/h (0 Bft)
31.08.2012 20:50 8,5 C 96 % 0,0 l/m 0,0 km/h (0 Bft) NO 45 7,9 C 8,3 C 0,0 km/h (0 Bft)
31.08.2012 20:55 8,5 C 96 % 0,0 l/m 0,0 km/h (0 Bft) N-NO 22 7,9 C 8,2 C 0,0 km/h (0 Bft)
31.08.2012 21:00 8,5 C 96 % 0,0 l/m 0,0 km/h (0 Bft) N 360 7,9 C 8,2 C 0,0 km/h (0 Bft)
31.08.2012 21:05 8,4 C 96 % 0,0 l/m 0,2 km/h (0 Bft) N-NW 337 7,8 C 8,2 C 2,3 km/h (1 Bft)
31.08.2012 21:10 8,4 C 96 % 0,0 l/m 0,3 km/h (0 Bft) NO 45 7,8 C 8,2 C 0,0 km/h (0 Bft)
31.08.2012 21:15 8,4 C 96 % 0,0 l/m 0,3 km/h (0 Bft) NO 45 7,8 C 8,2 C 0,0 km/h (0 Bft)
31.08.2012 21:20 8,4 C 96 % 0,0 l/m 0,2 km/h (0 Bft) N-NO 22 7,8 C 8,2 C 0,0 km/h (0 Bft)
31.08.2012 21:25 8,4 C 96 % 0,0 l/m 0,0 km/h (0 Bft) NO 45 7,8 C 8,2 C 0,0 km/h (0 Bft)
31.08.2012 21:30 8,4 C 96 % 0,0 l/m 0,2 km/h (0 Bft) S 180 7,8 C 8,2 C 0,0 km/h (0 Bft)
31.08.2012 21:35 8,5 C 96 % 0,0 l/m 0,2 km/h (0 Bft) N-NO 22 7,9 C 8,2 C 0,0 km/h (0 Bft)
31.08.2012 21:40 8,5 C 96 % 0,0 l/m 0,0 km/h (0 Bft) NO 45 7,9 C 8,2 C 0,0 km/h (0 Bft)
31.08.2012 21:45 8,4 C 96 % 0,0 l/m 0,0 km/h (0 Bft) NO 45 7,8 C 8,2 C 0,0 km/h (0 Bft)
31.08.2012 21:50 8,5 C 96 % 0,0 l/m 0,2 km/h (0 Bft) W 270 7,9 C 8,3 C 1,9 km/h (1 Bft)
31.08.2012 21:55 8,4 C 96 % 0,0 l/m 0,3 km/h (0 Bft) N-NW 337 7,8 C 8,3 C 0,0 km/h (0 Bft)
31.08.2012 22:00 8,5 C 96 % 0,0 l/m 0,3 km/h (0 Bft) NO 45 7,9 C 8,2 C 0,0 km/h (0 Bft)
31.08.2012 22:05 8,5 C 96 % 0,0 l/m 0,2 km/h (0 Bft) N 360 7,9 C 8,2 C 0,0 km/h (0 Bft)
31.08.2012 22:10 8,5 C 96 % 0,0 l/m 0,2 km/h (0 Bft) NO 45 7,9 C 8,3 C 0,0 km/h (0 Bft)
31.08.2012 22:15 8,5 C 96 % 0,0 l/m 0,0 km/h (0 Bft) S 180 7,9 C 8,3 C 0,0 km/h (0 Bft)
31.08.2012 22:20 8,5 C 96 % 0,0 l/m 0,0 km/h (0 Bft) NO 45 7,9 C 8,3 C 0,0 km/h (0 Bft)
31.08.2012 22:25 8,5 C 96 % 0,0 l/m 0,0 km/h (0 Bft) O 90 7,9 C 8,3 C 0,0 km/h (0 Bft)
31.08.2012 22:30 8,5 C 96 % 0,0 l/m 0,0 km/h (0 Bft) N-NO 22 7,9 C 8,2 C 0,0 km/h (0 Bft)
31.08.2012 22:35 8,5 C 96 % 0,7 l/m 0,0 km/h (0 Bft) W-SW 247 7,9 C 8,2 C 0,0 km/h (0 Bft)
31.08.2012 22:40 8,5 C 96 % 0,0 l/m 0,0 km/h (0 Bft) S-SO 157 7,9 C 8,2 C 0,0 km/h (0 Bft)
31.08.2012 22:45 8,5 C 96 % 0,0 l/m 0,3 km/h (0 Bft) O-SO 112 7,9 C 8,2 C 1,9 km/h (1 Bft)
31.08.2012 22:50 8,4 C 96 % 0,0 l/m 0,3 km/h (0 Bft) O-SO 112 7,8 C 8,2 C 0,0 km/h (0 Bft)
31.08.2012 22:55 8,4 C 96 % 0,0 l/m 0,2 km/h (0 Bft) W-NW 292 7,8 C 8,2 C 0,0 km/h (0 Bft)
31.08.2012 23:00 8,4 C 96 % 0,0 l/m 0,0 km/h (0 Bft) S-SW 202 7,8 C 8,2 C 0,0 km/h (0 Bft)
31.08.2012 23:05 8,4 C 96 % 0,0 l/m 0,0 km/h (0 Bft) NO 45 7,8 C 8,2 C 0,0 km/h (0 Bft)
31.08.2012 23:10 8,4 C 96 % 0,0 l/m 0,0 km/h (0 Bft) S 180 7,8 C 8,2 C 0,0 km/h (0 Bft)
31.08.2012 23:15 8,4 C 96 % 0,0 l/m 0,0 km/h (0 Bft) NO 45 7,8 C 8,2 C 0,0 km/h (0 Bft)
31.08.2012 23:20 8,4 C 96 % 0,0 l/m 0,0 km/h (0 Bft) S 180 7,8 C 8,2 C 0,0 km/h (0 Bft)
31.08.2012 23:25 8,5 C 96 % 0,7 l/m 0,2 km/h (0 Bft) SO 135 7,9 C 8,2 C 0,0 km/h (0 Bft)
31.08.2012 23:30 8,4 C 96 % 0,0 l/m 0,2 km/h (0 Bft) W-SW 247 7,8 C 8,2 C 0,0 km/h (0 Bft)
31.08.2012 23:35 8,4 C 96 % 0,0 l/m 0,0 km/h (0 Bft) NO 45 7,8 C 8,2 C 0,0 km/h (0 Bft)
31.08.2012 23:40 8,4 C 96 % 0,0 l/m 0,0 km/h (0 Bft) O 90 7,8 C 8,2 C 0,0 km/h (0 Bft)
31.08.2012 23:45 8,4 C 96 % 0,0 l/m 0,0 km/h (0 Bft) N-NO 22 7,8 C 8,2 C 0,0 km/h (0 Bft)
31.08.2012 23:50 8,4 C 96 % 0,0 l/m 0,3 km/h (0 Bft) S 180 7,8 C 8,2 C 1,6 km/h (1 Bft)
31.08.2012 23:55 8,5 C 96 % 0,7 l/m 0,5 km/h (0 Bft) W-SW 247 7,9 C 8,2 C 0,0 km/h (0 Bft)
_ Min-Zeit 23:50 17:55 - 23:45 - - 23:50 23:55 23:55
Minimum _ 8,4 C 95 % - 0,0 km/h (0 Bft) - - 7,8 C 8,2 C 0,0 km/h (0 Bft)
_ Max-Zeit 00:20 23:55 23:55 17:15 - - 00:20 00:25 17:10
Maximum _ 11,1 C 96 % 0,7 l/m 4,2 km/h
NO (1 Bft)
- - 10,3 C 11,0 C 12,2 km/h
S (2 Bft)
Durchschnitt _ 9,7 C 96 % #26,1 l/m 0,6 km/h (0 Bft) O-SO - 9,1 C 9,6 C 0,9 km/h (0 Bft)